createdAt,value
2023-03-27T05:02:07.237Z,88.64
2023-03-27T05:04:36.315Z,88.68
2023-03-27T05:07:05.387Z,88.31
2023-03-27T05:09:34.058Z,88.05
2023-03-27T05:12:03.453Z,88.01
2023-03-27T05:14:32.063Z,87.95
2023-03-27T05:17:01.096Z,88.03
2023-03-27T05:19:30.673Z,88.33
2023-03-27T05:21:59.453Z,88.65
2023-03-27T05:24:28.853Z,88.90
2023-03-27T05:26:57.945Z,89.04
2023-03-27T05:29:27.067Z,89.12
2023-03-27T05:31:55.618Z,89.21
2023-03-27T05:34:24.309Z,89.38
2023-03-27T05:36:53.329Z,89.48
2023-03-27T05:39:22.828Z,89.67
2023-03-27T05:41:51.837Z,89.74
2023-03-27T05:44:20.597Z,89.78
2023-03-27T05:46:49.280Z,89.93
2023-03-27T05:49:18.265Z,90.08
2023-03-27T05:51:47.456Z,90.24
2023-03-27T05:54:16.250Z,90.59
2023-03-27T05:56:44.993Z,90.69
2023-03-27T05:59:13.761Z,90.90
2023-03-27T06:01:43.242Z,90.94
2023-03-27T06:04:12.752Z,90.90
2023-03-27T06:06:42.175Z,90.86
2023-03-27T06:09:13.136Z,90.90
2023-03-27T06:11:43.158Z,91.09
2023-03-27T06:14:11.726Z,91.26
2023-03-27T06:16:40.681Z,91.20
2023-03-27T06:19:09.714Z,91.32
2023-03-27T06:21:39.920Z,91.42
2023-03-27T06:24:10.685Z,91.42
2023-03-27T06:26:39.594Z,91.42
2023-03-27T06:29:09.135Z,91.47
2023-03-27T06:31:39.224Z,91.46
2023-03-27T06:34:08.981Z,91.49
2023-03-27T06:36:37.549Z,91.49
2023-03-27T06:39:21.186Z,91.43
2023-03-27T06:41:57.775Z,91.51
2023-03-27T06:44:26.669Z,91.44
2023-03-27T06:46:55.258Z,91.47
2023-03-27T06:49:24.327Z,91.36
2023-03-27T06:51:53.437Z,91.23
2023-03-27T06:54:22.531Z,91.08
2023-03-27T06:56:51.378Z,90.90
2023-03-27T06:59:20.362Z,90.76
2023-03-27T07:01:50.395Z,90.68
2023-03-27T07:04:19.043Z,90.64
2023-03-27T07:06:49.165Z,90.67
2023-03-27T07:09:17.763Z,90.60
2023-03-27T07:11:46.391Z,90.51
2023-03-27T07:14:15.187Z,90.34
2023-03-27T07:16:44.022Z,90.17
2023-03-27T07:19:12.863Z,90.06
2023-03-27T07:21:42.134Z,89.60
2023-03-27T07:24:11.979Z,89.08
2023-03-27T07:26:40.551Z,88.46
2023-03-27T07:29:11.154Z,87.62
2023-03-27T07:31:55.914Z,86.98
2023-03-27T07:34:26.244Z,86.69
2023-03-27T07:36:57.521Z,86.28
2023-03-27T07:39:26.517Z,85.65
2023-03-27T07:41:55.823Z,84.59
2023-03-27T07:44:25.175Z,83.82
2023-03-27T07:46:54.934Z,84.01
2023-03-27T07:49:39.334Z,84.10
2023-03-27T07:52:10.047Z,83.61
2023-03-27T07:54:38.918Z,83.26
2023-03-27T07:57:07.906Z,82.66
2023-03-27T07:59:37.137Z,82.18
2023-03-27T08:02:06.105Z,81.63
2023-03-27T08:04:34.890Z,81.79
2023-03-27T08:07:03.804Z,81.23
2023-03-27T08:09:32.775Z,81.30
2023-03-27T08:12:01.566Z,81.24
2023-03-27T08:14:30.489Z,80.73
2023-03-27T08:17:12.437Z,80.68
2023-03-27T08:19:46.603Z,80.97
2023-03-27T08:22:15.566Z,81.32
2023-03-27T08:24:44.855Z,80.93
2023-03-27T08:27:14.185Z,81.17
2023-03-27T08:29:43.780Z,80.66
2023-03-27T08:32:12.972Z,80.66
2023-03-27T08:34:42.790Z,81.05
2023-03-27T08:37:11.370Z,80.36
2023-03-27T08:39:40.264Z,80.02
2023-03-27T08:42:19.361Z,80.37
2023-03-27T08:44:53.214Z,80.42
2023-03-27T08:47:34.422Z,80.32
2023-03-27T08:50:16.916Z,80.48
2023-03-27T08:52:47.120Z,80.20
2023-03-27T08:55:26.355Z,79.11
2023-03-27T08:57:55.441Z,80.03
2023-03-27T09:00:35.552Z,79.23
2023-03-27T09:03:39.310Z,79.76
2023-03-27T09:06:26.698Z,79.64
2023-03-27T09:09:32.274Z,79.04
2023-03-27T09:12:06.884Z,78.38
2023-03-27T09:14:51.367Z,78.47
2023-03-27T09:17:39.626Z,76.45
2023-03-27T09:20:26.332Z,75.66
2023-03-27T09:23:14.049Z,76.61
2023-03-27T09:25:51.109Z,76.72
2023-03-27T09:28:30.510Z,76.48
2023-03-27T09:31:02.012Z,75.66
2023-03-27T09:33:31.548Z,75.63
2023-03-27T09:36:01.009Z,76.04
2023-03-27T09:38:47.624Z,75.68
2023-03-27T09:41:30.195Z,74.96
2023-03-27T09:44:27.969Z,73.66
2023-03-27T09:47:15.807Z,72.48
2023-03-27T09:50:15.521Z,71.92
2023-03-27T09:52:44.162Z,72.05
2023-03-27T09:55:32.107Z,71.65
2023-03-27T09:58:30.258Z,71.41
2023-03-27T10:01:16.188Z,71.29
2023-03-27T10:03:53.213Z,71.12
2023-03-27T10:06:39.338Z,71.40
2023-03-27T10:09:29.427Z,70.68
2023-03-27T10:12:06.111Z,69.77
2023-03-27T10:14:47.671Z,70.06
2023-03-27T10:17:28.182Z,69.14
2023-03-27T10:20:09.442Z,69.30
2023-03-27T10:22:52.585Z,68.58
2023-03-27T10:25:33.544Z,66.50
2023-03-27T10:28:28.036Z,66.23
2023-03-27T10:31:36.681Z,64.90
2023-03-27T10:34:27.152Z,63.96
2023-03-27T10:36:57.050Z,65.65
2023-03-27T10:39:36.055Z,64.95
2023-03-27T10:42:10.219Z,63.60
2023-03-27T10:44:41.011Z,63.18
2023-03-27T10:47:23.837Z,62.39
2023-03-27T10:50:10.794Z,63.25
2023-03-27T10:53:04.606Z,61.89
2023-03-27T10:56:02.156Z,63.09
2023-03-27T10:58:39.003Z,62.62
2023-03-27T11:01:19.295Z,63.57
2023-03-27T11:04:02.273Z,62.33
2023-03-27T11:06:40.632Z,60.64
2023-03-27T11:09:24.240Z,60.56
2023-03-27T11:12:08.377Z,59.77
2023-03-27T11:15:01.941Z,59.81
2023-03-27T11:17:41.294Z,59.93
2023-03-27T11:20:26.454Z,60.43
2023-03-27T11:23:16.128Z,60.21
2023-03-27T11:25:53.739Z,59.14
2023-03-27T11:28:46.864Z,58.37
2023-03-27T11:31:46.696Z,58.52
2023-03-27T11:34:36.604Z,58.98
2023-03-27T11:37:50.537Z,58.80
2023-03-27T11:40:29.567Z,59.58
2023-03-27T11:42:58.119Z,56.79
2023-03-27T11:45:38.712Z,57.17
2023-03-27T11:48:11.239Z,57.42
2023-03-27T11:50:56.924Z,57.39
2023-03-27T11:53:55.150Z,57.94
2023-03-27T11:57:02.943Z,57.78
2023-03-27T11:59:55.423Z,58.06
2023-03-27T12:02:49.806Z,58.20
2023-03-27T12:05:28.644Z,57.79
2023-03-27T12:08:27.610Z,56.90
2023-03-27T12:10:59.640Z,55.81
2023-03-27T12:14:01.068Z,55.76
2023-03-27T12:16:59.814Z,57.34
2023-03-27T12:19:53.675Z,54.60
2023-03-27T12:22:37.653Z,52.69
2023-03-27T12:25:40.435Z,52.75
2023-03-27T12:28:41.060Z,54.06
2023-03-27T12:31:41.674Z,55.09
2023-03-27T12:34:31.989Z,54.22
2023-03-27T12:37:02.223Z,52.44
2023-03-27T12:39:31.553Z,52.88
2023-03-27T12:42:00.197Z,53.41
2023-03-27T12:44:32.488Z,53.24
2023-03-27T12:47:24.943Z,51.29
2023-03-27T12:50:12.136Z,51.49
2023-03-27T12:52:46.497Z,52.40
2023-03-27T12:55:21.464Z,51.88
2023-03-27T12:57:52.046Z,50.99
2023-03-27T13:00:25.955Z,50.44
2023-03-27T13:03:25.854Z,51.47
2023-03-27T13:06:06.840Z,51.72
2023-03-27T13:08:52.571Z,51.07
2023-03-27T13:11:41.469Z,50.05
2023-03-27T13:14:21.845Z,49.03
2023-03-27T13:17:29.472Z,49.01
2023-03-27T13:20:45.170Z,51.42
2023-03-27T13:23:52.833Z,50.80
2023-03-27T13:27:12.511Z,51.03
2023-03-27T13:29:41.935Z,49.55
2023-03-27T13:32:40.285Z,49.49
2023-03-27T13:35:21.844Z,50.01
2023-03-27T13:37:50.466Z,48.27
2023-03-27T13:40:40.871Z,47.24
2023-03-27T13:43:30.964Z,46.53
2023-03-27T13:46:05.531Z,46.80
2023-03-27T13:49:08.589Z,47.16
2023-03-27T13:51:47.102Z,47.05
2023-03-27T13:54:57.358Z,46.03
2023-03-27T13:57:47.560Z,45.27
2023-03-27T14:00:38.061Z,45.86
2023-03-27T14:03:37.636Z,47.20
2023-03-27T14:06:23.640Z,46.17
2023-03-27T14:09:18.352Z,44.83
2023-03-27T14:12:33.917Z,44.67
2023-03-27T14:16:02.341Z,43.69
2023-03-27T14:18:52.285Z,44.40
2023-03-27T14:21:35.493Z,43.84
2023-03-27T14:24:25.798Z,44.25
2023-03-27T14:26:57.080Z,43.94
2023-03-27T14:29:27.075Z,44.03
2023-03-27T14:32:04.441Z,43.68
2023-03-27T14:34:51.072Z,42.36
2023-03-27T14:37:32.463Z,43.97
2023-03-27T14:40:07.421Z,43.24
2023-03-27T14:42:36.178Z,42.60
2023-03-27T14:45:30.338Z,42.84
2023-03-27T14:48:21.574Z,41.78
2023-03-27T14:50:58.203Z,41.25
2023-03-27T14:53:36.911Z,42.35
2023-03-27T14:56:31.055Z,40.96
2023-03-27T14:59:03.914Z,39.28
2023-03-27T15:01:35.535Z,39.05
2023-03-27T15:04:11.537Z,38.86
2023-03-27T15:06:42.034Z,37.27
2023-03-27T15:09:19.804Z,37.27
2023-03-27T15:11:56.334Z,37.31
2023-03-27T15:14:29.418Z,38.35
2023-03-27T15:16:58.609Z,38.37
2023-03-27T15:19:45.909Z,35.90
2023-03-27T15:22:35.445Z,38.41
2023-03-27T15:25:28.918Z,37.54
2023-03-27T15:28:06.985Z,37.08
2023-03-27T15:30:51.767Z,37.74
2023-03-27T15:33:35.522Z,37.51
2023-03-27T15:36:26.483Z,37.81
2023-03-27T15:39:00.892Z,37.56
2023-03-27T15:41:32.898Z,36.07
2023-03-27T15:44:13.721Z,36.41
2023-03-27T15:47:02.041Z,37.30
2023-03-27T15:49:39.112Z,37.16
2023-03-27T15:52:33.853Z,37.82
2023-03-27T15:55:04.912Z,36.82
2023-03-27T15:58:28.820Z,37.41
2023-03-27T16:01:03.535Z,37.75
2023-03-27T16:03:50.781Z,38.38
2023-03-27T16:06:37.898Z,39.39
2023-03-27T16:09:38.851Z,39.44
2023-03-27T16:12:12.590Z,37.26
2023-03-27T16:14:41.258Z,38.94
2023-03-27T16:17:10.562Z,39.80
2023-03-27T16:19:49.578Z,38.47
2023-03-27T16:22:30.768Z,38.63
2023-03-27T16:25:10.283Z,37.93
2023-03-27T16:27:49.734Z,37.84
2023-03-27T16:30:29.878Z,38.65
2023-03-27T16:33:00.513Z,38.20
2023-03-27T16:35:34.545Z,37.92
2023-03-27T16:38:03.716Z,39.25
2023-03-27T16:40:32.612Z,38.70
2023-03-27T16:43:02.323Z,40.08
2023-03-27T16:45:31.333Z,39.87
2023-03-27T16:48:00.244Z,40.64
2023-03-27T16:50:31.192Z,40.59
2023-03-27T16:53:00.363Z,40.05
2023-03-27T16:55:30.544Z,40.44
2023-03-27T16:57:59.461Z,40.87
2023-03-27T17:00:28.658Z,41.22
2023-03-27T17:02:57.802Z,41.56
2023-03-27T17:05:26.995Z,41.72
2023-03-27T17:07:56.420Z,42.32
2023-03-27T17:10:25.357Z,42.50
2023-03-27T17:12:55.294Z,42.91
2023-03-27T17:15:24.478Z,43.28
2023-03-27T17:17:53.500Z,43.89
2023-03-27T17:20:22.361Z,44.37
2023-03-27T17:22:51.340Z,44.91
2023-03-27T17:25:20.135Z,45.30
2023-03-27T17:27:49.123Z,45.64
2023-03-27T17:30:26.867Z,45.86
2023-03-27T17:33:05.536Z,45.97
2023-03-27T17:35:34.982Z,46.01
2023-03-27T17:38:03.893Z,46.23
2023-03-27T17:40:33.077Z,46.50
2023-03-27T17:43:02.353Z,46.79
2023-03-27T17:45:31.899Z,47.10
2023-03-27T17:48:00.699Z,47.55
2023-03-27T17:50:29.827Z,48.06
2023-03-27T17:52:59.062Z,48.19
2023-03-27T17:55:28.125Z,48.75
2023-03-27T17:58:08.323Z,49.64
2023-03-27T18:00:43.014Z,50.25
2023-03-27T18:03:15.375Z,50.55
2023-03-27T18:05:48.178Z,50.38
2023-03-27T18:08:20.213Z,51.27
2023-03-27T18:10:52.821Z,51.62
2023-03-27T18:13:22.313Z,52.49
2023-03-27T18:15:58.752Z,52.37
2023-03-27T18:18:28.682Z,51.88
2023-03-27T18:20:57.725Z,52.47
2023-03-27T18:23:27.470Z,55.75
2023-03-27T18:25:56.592Z,55.30
2023-03-27T18:28:26.007Z,57.84
2023-03-27T18:31:10.920Z,59.74
2023-03-27T18:33:40.092Z,60.48
2023-03-27T18:36:11.021Z,59.07
2023-03-27T18:38:43.092Z,58.57
2023-03-27T18:41:12.063Z,59.40
2023-03-27T18:43:40.857Z,59.45
2023-03-27T18:46:10.961Z,59.54
2023-03-27T18:48:42.989Z,59.06
2023-03-27T18:51:12.251Z,58.42
2023-03-27T18:53:41.230Z,58.44
2023-03-27T18:56:12.944Z,58.51
2023-03-27T18:58:42.419Z,58.32
2023-03-27T19:01:11.815Z,58.64
2023-03-27T19:03:41.802Z,58.21
2023-03-27T19:06:15.507Z,59.28
2023-03-27T19:08:46.064Z,61.09
2023-03-27T19:11:14.630Z,63.64
2023-03-27T19:13:43.871Z,64.36
2023-03-27T19:16:15.208Z,66.31
2023-03-27T19:18:44.696Z,66.27
2023-03-27T19:21:13.913Z,64.72
2023-03-27T19:23:42.985Z,64.30
2023-03-27T19:26:16.861Z,64.36
2023-03-27T19:28:48.166Z,63.75
2023-03-27T19:31:17.987Z,63.23
2023-03-27T19:33:46.740Z,62.26
2023-03-27T19:36:15.989Z,61.73
2023-03-27T19:38:45.131Z,62.12
2023-03-27T19:41:13.941Z,62.37
2023-03-27T19:43:42.825Z,62.43
2023-03-27T19:46:16.197Z,62.30
2023-03-27T19:48:50.125Z,62.28
2023-03-27T19:51:19.153Z,62.30
2023-03-27T19:53:47.702Z,62.21
2023-03-27T19:56:16.622Z,62.15
2023-03-27T19:58:47.937Z,62.22
2023-03-27T20:01:20.109Z,62.56
2023-03-27T20:03:49.959Z,63.05
2023-03-27T20:06:19.999Z,63.13
2023-03-27T20:08:48.924Z,63.29
2023-03-27T20:11:17.690Z,63.49
2023-03-27T20:13:55.925Z,63.67
2023-03-27T20:16:29.736Z,63.89
2023-03-27T20:19:05.174Z,64.38
2023-03-27T20:21:39.134Z,64.64
2023-03-27T20:24:10.681Z,65.03
2023-03-27T20:26:41.839Z,65.68
2023-03-27T20:29:22.470Z,66.22
2023-03-27T20:31:53.277Z,66.93
2023-03-27T20:34:22.910Z,67.38
2023-03-27T20:36:55.204Z,67.90
2023-03-27T20:39:24.207Z,68.98
2023-03-27T20:41:59.296Z,70.24
2023-03-27T20:44:37.593Z,70.85
2023-03-27T20:47:13.712Z,72.04
2023-03-27T20:49:44.933Z,72.59
2023-03-27T20:52:19.977Z,73.49
2023-03-27T20:54:48.847Z,73.83
2023-03-27T20:57:17.885Z,74.77
2023-03-27T20:59:48.589Z,75.09
2023-03-27T21:02:20.280Z,75.48
2023-03-27T21:04:49.998Z,75.47
2023-03-27T21:07:19.392Z,75.89
2023-03-27T21:09:48.172Z,76.70
2023-03-27T21:12:17.052Z,77.46
2023-03-27T21:14:45.919Z,77.66
2023-03-27T21:17:14.600Z,78.23
2023-03-27T21:19:43.297Z,78.52
2023-03-27T21:22:12.016Z,78.47
2023-03-27T21:24:40.994Z,78.58
2023-03-27T21:27:09.872Z,78.75
2023-03-27T21:29:38.554Z,78.72
2023-03-27T21:32:07.592Z,79.00
2023-03-27T21:34:36.715Z,79.43
2023-03-27T21:37:05.565Z,79.08
2023-03-27T21:39:34.740Z,79.29
2023-03-27T21:42:03.894Z,79.41
2023-03-27T21:44:32.744Z,79.64
2023-03-27T21:47:01.825Z,80.30
2023-03-27T21:49:31.263Z,80.52
2023-03-27T21:52:00.224Z,80.44
2023-03-27T21:54:29.303Z,80.95
2023-03-27T21:56:58.194Z,81.42
